sensor_id;sensor_type;location;lat;lon;timestamp;P1;durP1;ratioP1;P2;durP2;ratioP2
76795;SDS011;65745;50.278;18.192;2024-02-23T00:01:54;8.50;;;6.10;;
76795;SDS011;65745;50.278;18.192;2024-02-23T00:04:26;7.30;;;5.90;;
76795;SDS011;65745;50.278;18.192;2024-02-23T00:06:59;7.00;;;5.40;;
76795;SDS011;65745;50.278;18.192;2024-02-23T00:09:32;6.40;;;5.10;;
76795;SDS011;65745;50.278;18.192;2024-02-23T00:12:05;7.10;;;6.30;;
76795;SDS011;65745;50.278;18.192;2024-02-23T00:14:39;7.60;;;6.10;;
76795;SDS011;65745;50.278;18.192;2024-02-23T00:17:11;7.70;;;6.20;;
76795;SDS011;65745;50.278;18.192;2024-02-23T00:19:45;7.20;;;6.50;;
76795;SDS011;65745;50.278;18.192;2024-02-23T00:22:18;7.60;;;5.90;;
76795;SDS011;65745;50.278;18.192;2024-02-23T00:24:50;8.00;;;6.50;;
76795;SDS011;65745;50.278;18.192;2024-02-23T00:27:24;6.10;;;5.50;;
76795;SDS011;65745;50.278;18.192;2024-02-23T00:29:56;7.30;;;6.50;;
76795;SDS011;65745;50.278;18.192;2024-02-23T00:32:28;6.60;;;5.80;;
76795;SDS011;65745;50.278;18.192;2024-02-23T00:35:01;7.30;;;5.60;;
76795;SDS011;65745;50.278;18.192;2024-02-23T00:37:33;7.70;;;6.10;;
76795;SDS011;65745;50.278;18.192;2024-02-23T00:40:06;6.40;;;5.60;;
76795;SDS011;65745;50.278;18.192;2024-02-23T00:42:40;7.50;;;6.80;;
76795;SDS011;65745;50.278;18.192;2024-02-23T00:45:12;8.80;;;6.50;;
76795;SDS011;65745;50.278;18.192;2024-02-23T00:47:44;6.60;;;5.60;;
76795;SDS011;65745;50.278;18.192;2024-02-23T00:50:17;6.50;;;5.40;;
76795;SDS011;65745;50.278;18.192;2024-02-23T00:52:50;6.50;;;5.80;;
76795;SDS011;65745;50.278;18.192;2024-02-23T00:55:22;7.00;;;5.80;;
76795;SDS011;65745;50.278;18.192;2024-02-23T00:57:55;7.00;;;5.80;;
76795;SDS011;65745;50.278;18.192;2024-02-23T01:00:28;7.10;;;6.10;;
76795;SDS011;65745;50.278;18.192;2024-02-23T01:03:01;6.90;;;5.80;;
76795;SDS011;65745;50.278;18.192;2024-02-23T01:05:34;8.30;;;6.50;;
76795;SDS011;65745;50.278;18.192;2024-02-23T01:08:07;6.30;;;5.10;;
76795;SDS011;65745;50.278;18.192;2024-02-23T01:10:40;7.00;;;5.70;;
76795;SDS011;65745;50.278;18.192;2024-02-23T01:13:12;6.80;;;5.60;;
76795;SDS011;65745;50.278;18.192;2024-02-23T01:15:44;8.20;;;6.10;;
76795;SDS011;65745;50.278;18.192;2024-02-23T01:18:16;6.50;;;5.90;;
76795;SDS011;65745;50.278;18.192;2024-02-23T01:20:48;6.90;;;5.70;;
76795;SDS011;65745;50.278;18.192;2024-02-23T01:23:21;7.10;;;5.80;;
76795;SDS011;65745;50.278;18.192;2024-02-23T01:25:53;7.30;;;5.90;;
76795;SDS011;65745;50.278;18.192;2024-02-23T01:28:28;6.90;;;5.60;;
76795;SDS011;65745;50.278;18.192;2024-02-23T01:31:00;7.50;;;5.80;;
76795;SDS011;65745;50.278;18.192;2024-02-23T01:33:33;7.60;;;5.50;;
76795;SDS011;65745;50.278;18.192;2024-02-23T01:36:06;6.70;;;4.90;;
76795;SDS011;65745;50.278;18.192;2024-02-23T01:38:39;5.50;;;5.00;;
76795;SDS011;65745;50.278;18.192;2024-02-23T01:41:12;6.70;;;6.00;;
76795;SDS011;65745;50.278;18.192;2024-02-23T01:43:44;6.30;;;5.60;;
76795;SDS011;65745;50.278;18.192;2024-02-23T01:46:16;6.10;;;5.30;;
76795;SDS011;65745;50.278;18.192;2024-02-23T01:48:49;5.60;;;5.10;;
76795;SDS011;65745;50.278;18.192;2024-02-23T01:51:22;6.50;;;5.30;;
76795;SDS011;65745;50.278;18.192;2024-02-23T01:53:54;6.20;;;5.30;;
76795;SDS011;65745;50.278;18.192;2024-02-23T01:56:27;7.30;;;5.10;;
76795;SDS011;65745;50.278;18.192;2024-02-23T01:59:00;4.70;;;4.30;;
76795;SDS011;65745;50.278;18.192;2024-02-23T02:01:34;6.70;;;4.70;;
76795;SDS011;65745;50.278;18.192;2024-02-23T02:04:07;5.00;;;4.50;;
76795;SDS011;65745;50.278;18.192;2024-02-23T02:06:39;6.10;;;4.60;;
76795;SDS011;65745;50.278;18.192;2024-02-23T02:09:12;5.00;;;4.30;;
76795;SDS011;65745;50.278;18.192;2024-02-23T02:11:47;5.30;;;4.70;;
76795;SDS011;65745;50.278;18.192;2024-02-23T02:14:20;6.40;;;5.00;;
76795;SDS011;65745;50.278;18.192;2024-02-23T02:16:52;5.00;;;4.50;;
76795;SDS011;65745;50.278;18.192;2024-02-23T02:19:25;5.20;;;4.30;;
76795;SDS011;65745;50.278;18.192;2024-02-23T02:21:57;5.00;;;4.50;;
76795;SDS011;65745;50.278;18.192;2024-02-23T02:24:29;5.20;;;3.90;;
76795;SDS011;65745;50.278;18.192;2024-02-23T02:27:02;5.30;;;4.60;;
76795;SDS011;65745;50.278;18.192;2024-02-23T02:29:36;6.00;;;4.50;;
76795;SDS011;65745;50.278;18.192;2024-02-23T02:32:08;4.30;;;3.90;;
76795;SDS011;65745;50.278;18.192;2024-02-23T02:34:40;5.20;;;4.70;;
76795;SDS011;65745;50.278;18.192;2024-02-23T02:37:12;5.40;;;4.40;;
76795;SDS011;65745;50.278;18.192;2024-02-23T02:39:45;5.10;;;4.40;;
76795;SDS011;65745;50.278;18.192;2024-02-23T02:42:17;6.90;;;4.10;;
76795;SDS011;65745;50.278;18.192;2024-02-23T02:44:49;5.90;;;4.80;;
76795;SDS011;65745;50.278;18.192;2024-02-23T02:47:21;4.90;;;4.20;;
76795;SDS011;65745;50.278;18.192;2024-02-23T02:49:54;5.60;;;4.30;;
76795;SDS011;65745;50.278;18.192;2024-02-23T02:52:26;6.40;;;4.30;;
76795;SDS011;65745;50.278;18.192;2024-02-23T02:54:58;4.80;;;3.80;;
76795;SDS011;65745;50.278;18.192;2024-02-23T02:57:30;4.80;;;4.10;;
76795;SDS011;65745;50.278;18.192;2024-02-23T03:00:03;5.80;;;4.50;;
76795;SDS011;65745;50.278;18.192;2024-02-23T03:02:40;5.80;;;4.30;;
76795;SDS011;65745;50.278;18.192;2024-02-23T03:05:12;6.10;;;4.20;;
76795;SDS011;65745;50.278;18.192;2024-02-23T03:07:44;4.20;;;3.70;;
76795;SDS011;65745;50.278;18.192;2024-02-23T03:10:17;5.00;;;4.30;;
76795;SDS011;65745;50.278;18.192;2024-02-23T03:12:49;6.40;;;4.60;;
76795;SDS011;65745;50.278;18.192;2024-02-23T03:15:21;5.10;;;4.30;;
76795;SDS011;65745;50.278;18.192;2024-02-23T03:17:53;5.60;;;4.60;;
76795;SDS011;65745;50.278;18.192;2024-02-23T03:20:27;5.00;;;4.30;;
76795;SDS011;65745;50.278;18.192;2024-02-23T03:22:59;6.60;;;4.50;;
76795;SDS011;65745;50.278;18.192;2024-02-23T03:25:32;5.10;;;4.60;;
76795;SDS011;65745;50.278;18.192;2024-02-23T03:28:05;6.00;;;5.10;;
76795;SDS011;65745;50.278;18.192;2024-02-23T03:30:37;6.00;;;4.60;;
76795;SDS011;65745;50.278;18.192;2024-02-23T03:33:09;5.90;;;4.50;;
76795;SDS011;65745;50.278;18.192;2024-02-23T03:35:42;4.70;;;4.20;;
76795;SDS011;65745;50.278;18.192;2024-02-23T03:38:14;5.60;;;4.30;;
76795;SDS011;65745;50.278;18.192;2024-02-23T03:40:47;6.90;;;4.80;;
76795;SDS011;65745;50.278;18.192;2024-02-23T03:43:19;4.60;;;3.70;;
76795;SDS011;65745;50.278;18.192;2024-02-23T03:45:51;5.80;;;4.20;;
76795;SDS011;65745;50.278;18.192;2024-02-23T03:48:24;5.00;;;4.20;;
76795;SDS011;65745;50.278;18.192;2024-02-23T03:50:56;5.70;;;4.60;;
76795;SDS011;65745;50.278;18.192;2024-02-23T03:53:28;6.40;;;4.70;;
76795;SDS011;65745;50.278;18.192;2024-02-23T03:56:00;6.10;;;4.60;;
76795;SDS011;65745;50.278;18.192;2024-02-23T03:58:33;5.70;;;4.90;;
76795;SDS011;65745;50.278;18.192;2024-02-23T04:01:05;5.00;;;4.40;;
76795;SDS011;65745;50.278;18.192;2024-02-23T04:03:37;5.30;;;4.40;;
76795;SDS011;65745;50.278;18.192;2024-02-23T04:06:10;6.40;;;5.40;;
76795;SDS011;65745;50.278;18.192;2024-02-23T04:08:42;5.50;;;4.20;;
76795;SDS011;65745;50.278;18.192;2024-02-23T04:11:18;5.60;;;4.60;;
76795;SDS011;65745;50.278;18.192;2024-02-23T04:13:50;5.20;;;4.70;;
76795;SDS011;65745;50.278;18.192;2024-02-23T04:16:24;4.80;;;4.30;;
76795;SDS011;65745;50.278;18.192;2024-02-23T04:18:56;6.30;;;4.20;;
76795;SDS011;65745;50.278;18.192;2024-02-23T04:21:29;7.80;;;4.90;;
76795;SDS011;65745;50.278;18.192;2024-02-23T04:24:01;5.00;;;4.40;;
76795;SDS011;65745;50.278;18.192;2024-02-23T04:26:34;5.60;;;4.30;;
76795;SDS011;65745;50.278;18.192;2024-02-23T04:29:06;5.50;;;4.50;;
76795;SDS011;65745;50.278;18.192;2024-02-23T04:31:38;5.80;;;5.20;;
76795;SDS011;65745;50.278;18.192;2024-02-23T04:34:10;4.50;;;3.80;;
76795;SDS011;65745;50.278;18.192;2024-02-23T04:36:45;5.40;;;4.20;;
76795;SDS011;65745;50.278;18.192;2024-02-23T04:39:17;4.60;;;4.10;;
76795;SDS011;65745;50.278;18.192;2024-02-23T04:41:49;4.80;;;3.90;;
76795;SDS011;65745;50.278;18.192;2024-02-23T04:44:23;5.30;;;3.60;;
76795;SDS011;65745;50.278;18.192;2024-02-23T04:46:55;5.00;;;4.30;;
76795;SDS011;65745;50.278;18.192;2024-02-23T04:49:27;6.00;;;4.50;;
76795;SDS011;65745;50.278;18.192;2024-02-23T04:51:59;6.50;;;4.30;;
76795;SDS011;65745;50.278;18.192;2024-02-23T04:54:31;5.30;;;4.30;;
76795;SDS011;65745;50.278;18.192;2024-02-23T04:57:04;4.70;;;3.90;;
76795;SDS011;65745;50.278;18.192;2024-02-23T04:59:36;4.90;;;4.00;;
76795;SDS011;65745;50.278;18.192;2024-02-23T05:02:08;5.20;;;4.20;;
76795;SDS011;65745;50.278;18.192;2024-02-23T05:04:41;5.90;;;4.10;;
76795;SDS011;65745;50.278;18.192;2024-02-23T05:07:13;4.40;;;4.00;;
76795;SDS011;65745;50.278;18.192;2024-02-23T05:09:45;5.80;;;4.40;;
76795;SDS011;65745;50.278;18.192;2024-02-23T05:12:17;4.80;;;4.20;;
76795;SDS011;65745;50.278;18.192;2024-02-23T05:14:50;5.20;;;4.20;;
76795;SDS011;65745;50.278;18.192;2024-02-23T05:17:22;6.30;;;4.50;;
76795;SDS011;65745;50.278;18.192;2024-02-23T05:19:54;3.80;;;3.40;;
76795;SDS011;65745;50.278;18.192;2024-02-23T05:22:27;6.40;;;4.10;;
76795;SDS011;65745;50.278;18.192;2024-02-23T05:24:59;5.60;;;4.50;;
76795;SDS011;65745;50.278;18.192;2024-02-23T05:27:32;6.10;;;4.60;;
76795;SDS011;65745;50.278;18.192;2024-02-23T05:30:06;4.60;;;4.10;;
76795;SDS011;65745;50.278;18.192;2024-02-23T05:32:39;6.90;;;5.00;;
76795;SDS011;65745;50.278;18.192;2024-02-23T05:35:12;6.60;;;5.00;;
76795;SDS011;65745;50.278;18.192;2024-02-23T05:37:44;6.50;;;5.50;;
76795;SDS011;65745;50.278;18.192;2024-02-23T05:40:17;5.50;;;4.90;;
76795;SDS011;65745;50.278;18.192;2024-02-23T05:42:49;6.80;;;5.10;;
76795;SDS011;65745;50.278;18.192;2024-02-23T05:45:21;9.30;;;5.80;;
76795;SDS011;65745;50.278;18.192;2024-02-23T05:47:54;8.40;;;6.20;;
76795;SDS011;65745;50.278;18.192;2024-02-23T05:50:26;11.30;;;6.20;;
76795;SDS011;65745;50.278;18.192;2024-02-23T05:52:58;6.50;;;5.20;;
76795;SDS011;65745;50.278;18.192;2024-02-23T05:55:30;7.30;;;4.50;;
76795;SDS011;65745;50.278;18.192;2024-02-23T05:58:03;5.80;;;4.90;;
76795;SDS011;65745;50.278;18.192;2024-02-23T06:00:35;5.20;;;4.50;;
76795;SDS011;65745;50.278;18.192;2024-02-23T06:03:08;6.20;;;5.30;;
76795;SDS011;65745;50.278;18.192;2024-02-23T06:05:40;6.30;;;4.80;;
76795;SDS011;65745;50.278;18.192;2024-02-23T06:08:12;8.90;;;5.40;;
76795;SDS011;65745;50.278;18.192;2024-02-23T06:10:45;6.80;;;5.00;;
76795;SDS011;65745;50.278;18.192;2024-02-23T06:13:17;5.80;;;5.00;;
76795;SDS011;65745;50.278;18.192;2024-02-23T06:15:49;4.90;;;4.40;;
76795;SDS011;65745;50.278;18.192;2024-02-23T06:18:23;6.50;;;5.00;;
76795;SDS011;65745;50.278;18.192;2024-02-23T06:20:55;5.10;;;4.50;;
76795;SDS011;65745;50.278;18.192;2024-02-23T06:23:27;6.60;;;5.40;;
76795;SDS011;65745;50.278;18.192;2024-02-23T06:25:59;6.40;;;4.60;;
76795;SDS011;65745;50.278;18.192;2024-02-23T06:28:32;5.60;;;4.70;;
76795;SDS011;65745;50.278;18.192;2024-02-23T06:31:06;4.80;;;4.40;;
76795;SDS011;65745;50.278;18.192;2024-02-23T06:33:39;4.90;;;3.90;;
76795;SDS011;65745;50.278;18.192;2024-02-23T06:36:11;5.20;;;4.40;;
76795;SDS011;65745;50.278;18.192;2024-02-23T06:38:43;6.10;;;5.10;;
76795;SDS011;65745;50.278;18.192;2024-02-23T06:41:16;7.00;;;5.50;;
76795;SDS011;65745;50.278;18.192;2024-02-23T06:43:48;6.90;;;5.00;;
76795;SDS011;65745;50.278;18.192;2024-02-23T06:46:21;6.80;;;5.00;;
76795;SDS011;65745;50.278;18.192;2024-02-23T06:48:53;5.90;;;5.00;;
76795;SDS011;65745;50.278;18.192;2024-02-23T06:51:26;6.70;;;5.00;;
76795;SDS011;65745;50.278;18.192;2024-02-23T06:53:59;6.60;;;5.40;;
76795;SDS011;65745;50.278;18.192;2024-02-23T06:56:32;6.90;;;4.60;;
76795;SDS011;65745;50.278;18.192;2024-02-23T06:59:05;7.00;;;5.30;;
76795;SDS011;65745;50.278;18.192;2024-02-23T07:01:46;5.30;;;4.40;;
76795;SDS011;65745;50.278;18.192;2024-02-23T07:04:20;6.30;;;5.20;;
76795;SDS011;65745;50.278;18.192;2024-02-23T07:06:52;6.10;;;4.70;;
76795;SDS011;65745;50.278;18.192;2024-02-23T07:09:25;7.70;;;6.00;;
76795;SDS011;65745;50.278;18.192;2024-02-23T07:11:57;7.30;;;5.80;;
76795;SDS011;65745;50.278;18.192;2024-02-23T07:14:30;8.40;;;6.30;;
76795;SDS011;65745;50.278;18.192;2024-02-23T07:17:02;7.40;;;6.00;;
76795;SDS011;65745;50.278;18.192;2024-02-23T07:19:35;8.40;;;6.20;;
76795;SDS011;65745;50.278;18.192;2024-02-23T07:22:07;6.40;;;5.30;;
76795;SDS011;65745;50.278;18.192;2024-02-23T07:24:40;7.10;;;4.80;;
76795;SDS011;65745;50.278;18.192;2024-02-23T07:27:13;6.00;;;4.70;;
76795;SDS011;65745;50.278;18.192;2024-02-23T07:29:45;9.20;;;6.50;;
76795;SDS011;65745;50.278;18.192;2024-02-23T07:32:17;7.30;;;6.60;;
76795;SDS011;65745;50.278;18.192;2024-02-23T07:34:50;9.10;;;7.70;;
76795;SDS011;65745;50.278;18.192;2024-02-23T07:37:22;7.70;;;6.80;;
76795;SDS011;65745;50.278;18.192;2024-02-23T07:39:56;9.90;;;7.30;;
76795;SDS011;65745;50.278;18.192;2024-02-23T07:42:28;9.60;;;7.80;;
76795;SDS011;65745;50.278;18.192;2024-02-23T07:45:00;15.10;;;8.90;;
76795;SDS011;65745;50.278;18.192;2024-02-23T07:47:33;19.00;;;10.90;;
76795;SDS011;65745;50.278;18.192;2024-02-23T07:50:06;20.90;;;12.00;;
76795;SDS011;65745;50.278;18.192;2024-02-23T07:52:39;20.10;;;13.20;;
76795;SDS011;65745;50.278;18.192;2024-02-23T07:55:11;18.10;;;10.40;;
76795;SDS011;65745;50.278;18.192;2024-02-23T07:57:45;18.80;;;10.70;;
76795;SDS011;65745;50.278;18.192;2024-02-23T08:00:18;30.40;;;12.80;;
76795;SDS011;65745;50.278;18.192;2024-02-23T08:05:26;39.10;;;14.60;;
76795;SDS011;65745;50.278;18.192;2024-02-23T08:07:58;14.60;;;9.00;;
76795;SDS011;65745;50.278;18.192;2024-02-23T08:10:31;8.40;;;6.00;;
76795;SDS011;65745;50.278;18.192;2024-02-23T08:13:03;6.20;;;5.00;;
76795;SDS011;65745;50.278;18.192;2024-02-23T08:15:36;6.30;;;5.50;;
76795;SDS011;65745;50.278;18.192;2024-02-23T08:18:08;7.80;;;5.10;;
76795;SDS011;65745;50.278;18.192;2024-02-23T08:20:40;7.10;;;4.60;;
76795;SDS011;65745;50.278;18.192;2024-02-23T08:23:13;7.40;;;5.50;;
76795;SDS011;65745;50.278;18.192;2024-02-23T08:25:45;6.30;;;5.70;;
76795;SDS011;65745;50.278;18.192;2024-02-23T08:28:17;7.20;;;4.80;;
76795;SDS011;65745;50.278;18.192;2024-02-23T08:30:49;8.20;;;5.10;;
76795;SDS011;65745;50.278;18.192;2024-02-23T08:33:22;7.60;;;5.40;;
76795;SDS011;65745;50.278;18.192;2024-02-23T08:35:54;6.10;;;5.50;;
76795;SDS011;65745;50.278;18.192;2024-02-23T08:38:27;6.30;;;5.00;;
76795;SDS011;65745;50.278;18.192;2024-02-23T08:40:59;5.50;;;5.00;;
76795;SDS011;65745;50.278;18.192;2024-02-23T08:43:32;6.50;;;5.20;;
76795;SDS011;65745;50.278;18.192;2024-02-23T08:46:05;6.60;;;4.90;;
76795;SDS011;65745;50.278;18.192;2024-02-23T08:48:39;6.00;;;4.60;;
76795;SDS011;65745;50.278;18.192;2024-02-23T08:51:11;5.40;;;4.80;;
76795;SDS011;65745;50.278;18.192;2024-02-23T08:53:44;5.90;;;4.70;;
76795;SDS011;65745;50.278;18.192;2024-02-23T08:56:16;5.00;;;4.40;;
76795;SDS011;65745;50.278;18.192;2024-02-23T08:58:48;6.10;;;5.10;;
76795;SDS011;65745;50.278;18.192;2024-02-23T09:01:20;7.00;;;5.30;;
76795;SDS011;65745;50.278;18.192;2024-02-23T09:03:53;6.50;;;4.80;;
76795;SDS011;65745;50.278;18.192;2024-02-23T09:06:25;6.00;;;5.10;;
76795;SDS011;65745;50.278;18.192;2024-02-23T09:08:58;5.90;;;4.90;;
76795;SDS011;65745;50.278;18.192;2024-02-23T09:11:30;8.20;;;4.80;;
76795;SDS011;65745;50.278;18.192;2024-02-23T09:14:03;7.00;;;5.20;;
76795;SDS011;65745;50.278;18.192;2024-02-23T09:16:35;7.30;;;5.40;;
76795;SDS011;65745;50.278;18.192;2024-02-23T09:19:08;6.00;;;4.40;;
76795;SDS011;65745;50.278;18.192;2024-02-23T09:21:40;6.10;;;4.10;;
76795;SDS011;65745;50.278;18.192;2024-02-23T09:24:12;7.70;;;5.30;;
76795;SDS011;65745;50.278;18.192;2024-02-23T09:26:47;7.10;;;5.50;;
76795;SDS011;65745;50.278;18.192;2024-02-23T09:29:19;5.80;;;4.80;;
76795;SDS011;65745;50.278;18.192;2024-02-23T09:31:52;5.90;;;4.70;;
76795;SDS011;65745;50.278;18.192;2024-02-23T09:34:24;5.80;;;4.70;;
76795;SDS011;65745;50.278;18.192;2024-02-23T09:36:56;5.80;;;4.50;;
76795;SDS011;65745;50.278;18.192;2024-02-23T09:39:28;5.00;;;4.00;;
76795;SDS011;65745;50.278;18.192;2024-02-23T09:42:01;5.60;;;4.20;;
76795;SDS011;65745;50.278;18.192;2024-02-23T09:47:07;4.70;;;3.90;;
76795;SDS011;65745;50.278;18.192;2024-02-23T09:49:41;4.00;;;3.50;;
76795;SDS011;65745;50.278;18.192;2024-02-23T09:52:14;4.70;;;4.00;;
76795;SDS011;65745;50.278;18.192;2024-02-23T09:54:47;4.90;;;3.70;;
76795;SDS011;65745;50.278;18.192;2024-02-23T09:57:20;3.90;;;3.50;;
76795;SDS011;65745;50.278;18.192;2024-02-23T09:59:53;5.70;;;4.00;;
76795;SDS011;65745;50.278;18.192;2024-02-23T10:02:26;5.10;;;4.00;;
76795;SDS011;65745;50.278;18.192;2024-02-23T10:05:01;5.20;;;3.90;;
76795;SDS011;65745;50.278;18.192;2024-02-23T10:07:34;4.70;;;3.20;;
76795;SDS011;65745;50.278;18.192;2024-02-23T10:10:08;4.30;;;3.60;;
76795;SDS011;65745;50.278;18.192;2024-02-23T10:12:41;4.40;;;3.50;;
76795;SDS011;65745;50.278;18.192;2024-02-23T10:15:14;5.90;;;3.70;;
76795;SDS011;65745;50.278;18.192;2024-02-23T10:17:47;5.20;;;3.20;;
76795;SDS011;65745;50.278;18.192;2024-02-23T10:20:19;4.30;;;3.80;;
76795;SDS011;65745;50.278;18.192;2024-02-23T10:22:51;5.10;;;4.00;;
76795;SDS011;65745;50.278;18.192;2024-02-23T10:25:24;5.30;;;4.10;;
76795;SDS011;65745;50.278;18.192;2024-02-23T10:27:56;5.10;;;4.00;;
76795;SDS011;65745;50.278;18.192;2024-02-23T10:30:29;10.70;;;7.50;;
76795;SDS011;65745;50.278;18.192;2024-02-23T10:33:01;10.10;;;7.20;;
76795;SDS011;65745;50.278;18.192;2024-02-23T10:35:35;9.20;;;5.50;;
76795;SDS011;65745;50.278;18.192;2024-02-23T10:38:11;7.20;;;5.20;;
76795;SDS011;65745;50.278;18.192;2024-02-23T10:40:47;7.40;;;5.70;;
76795;SDS011;65745;50.278;18.192;2024-02-23T10:43:21;5.90;;;4.10;;
76795;SDS011;65745;50.278;18.192;2024-02-23T10:46:00;7.00;;;4.10;;
76795;SDS011;65745;50.278;18.192;2024-02-23T10:48:37;4.50;;;3.80;;
76795;SDS011;65745;50.278;18.192;2024-02-23T10:51:12;3.70;;;3.20;;
76795;SDS011;65745;50.278;18.192;2024-02-23T10:53:50;5.40;;;4.50;;
76795;SDS011;65745;50.278;18.192;2024-02-23T10:56:25;6.40;;;4.20;;
76795;SDS011;65745;50.278;18.192;2024-02-23T10:58:58;6.80;;;5.40;;
76795;SDS011;65745;50.278;18.192;2024-02-23T11:01:30;6.40;;;4.90;;
76795;SDS011;65745;50.278;18.192;2024-02-23T11:04:06;5.70;;;4.60;;
76795;SDS011;65745;50.278;18.192;2024-02-23T11:06:40;5.40;;;4.10;;
76795;SDS011;65745;50.278;18.192;2024-02-23T11:09:22;6.70;;;4.60;;
76795;SDS011;65745;50.278;18.192;2024-02-23T11:11:55;6.50;;;5.20;;
76795;SDS011;65745;50.278;18.192;2024-02-23T11:14:31;6.00;;;5.10;;
76795;SDS011;65745;50.278;18.192;2024-02-23T11:17:06;9.20;;;6.80;;
76795;SDS011;65745;50.278;18.192;2024-02-23T11:19:50;6.30;;;5.20;;
76795;SDS011;65745;50.278;18.192;2024-02-23T11:22:25;6.30;;;4.70;;
76795;SDS011;65745;50.278;18.192;2024-02-23T11:25:07;7.00;;;4.40;;
76795;SDS011;65745;50.278;18.192;2024-02-23T11:27:40;5.40;;;4.40;;
76795;SDS011;65745;50.278;18.192;2024-02-23T11:30:13;4.90;;;3.70;;
76795;SDS011;65745;50.278;18.192;2024-02-23T11:32:50;5.50;;;4.10;;
76795;SDS011;65745;50.278;18.192;2024-02-23T11:35:29;5.00;;;3.70;;
76795;SDS011;65745;50.278;18.192;2024-02-23T11:38:01;5.20;;;4.10;;
76795;SDS011;65745;50.278;18.192;2024-02-23T11:40:36;5.40;;;3.80;;
76795;SDS011;65745;50.278;18.192;2024-02-23T11:43:09;4.40;;;3.50;;
76795;SDS011;65745;50.278;18.192;2024-02-23T11:45:42;4.40;;;3.50;;
76795;SDS011;65745;50.278;18.192;2024-02-23T11:48:17;4.70;;;3.90;;
76795;SDS011;65745;50.278;18.192;2024-02-23T11:50:52;4.90;;;4.10;;
76795;SDS011;65745;50.278;18.192;2024-02-23T11:53:25;4.90;;;3.60;;
76795;SDS011;65745;50.278;18.192;2024-02-23T11:55:59;5.30;;;3.80;;
76795;SDS011;65745;50.278;18.192;2024-02-23T11:58:32;4.00;;;3.50;;
76795;SDS011;65745;50.278;18.192;2024-02-23T12:01:04;6.30;;;4.40;;
76795;SDS011;65745;50.278;18.192;2024-02-23T12:03:37;5.20;;;4.00;;
76795;SDS011;65745;50.278;18.192;2024-02-23T12:06:10;5.80;;;4.20;;
76795;SDS011;65745;50.278;18.192;2024-02-23T12:08:44;5.40;;;3.70;;
76795;SDS011;65745;50.278;18.192;2024-02-23T12:11:17;4.90;;;3.40;;
76795;SDS011;65745;50.278;18.192;2024-02-23T12:13:50;6.40;;;4.60;;
76795;SDS011;65745;50.278;18.192;2024-02-23T12:16:23;21.50;;;9.30;;
76795;SDS011;65745;50.278;18.192;2024-02-23T12:18:57;11.10;;;6.40;;
76795;SDS011;65745;50.278;18.192;2024-02-23T12:21:33;9.80;;;5.90;;
76795;SDS011;65745;50.278;18.192;2024-02-23T12:24:07;6.70;;;5.40;;
76795;SDS011;65745;50.278;18.192;2024-02-23T12:26:39;8.30;;;5.50;;
76795;SDS011;65745;50.278;18.192;2024-02-23T12:29:11;8.10;;;4.70;;
76795;SDS011;65745;50.278;18.192;2024-02-23T12:31:44;7.50;;;4.40;;
76795;SDS011;65745;50.278;18.192;2024-02-23T12:34:16;6.40;;;3.60;;
76795;SDS011;65745;50.278;18.192;2024-02-23T12:36:50;6.20;;;3.10;;
76795;SDS011;65745;50.278;18.192;2024-02-23T12:39:22;3.30;;;2.30;;
76795;SDS011;65745;50.278;18.192;2024-02-23T12:41:55;5.90;;;3.10;;
76795;SDS011;65745;50.278;18.192;2024-02-23T12:44:28;6.60;;;2.70;;
76795;SDS011;65745;50.278;18.192;2024-02-23T12:47:00;5.40;;;2.90;;
76795;SDS011;65745;50.278;18.192;2024-02-23T12:49:33;7.60;;;3.80;;
76795;SDS011;65745;50.278;18.192;2024-02-23T12:52:05;7.20;;;4.00;;
76795;SDS011;65745;50.278;18.192;2024-02-23T12:54:38;11.30;;;5.10;;
76795;SDS011;65745;50.278;18.192;2024-02-23T12:57:11;9.40;;;3.80;;
76795;SDS011;65745;50.278;18.192;2024-02-23T12:59:43;5.70;;;3.20;;
76795;SDS011;65745;50.278;18.192;2024-02-23T13:02:15;7.00;;;3.80;;
76795;SDS011;65745;50.278;18.192;2024-02-23T13:04:48;5.70;;;3.00;;
76795;SDS011;65745;50.278;18.192;2024-02-23T13:07:20;3.80;;;3.10;;
76795;SDS011;65745;50.278;18.192;2024-02-23T13:09:52;4.00;;;2.90;;
76795;SDS011;65745;50.278;18.192;2024-02-23T13:12:24;4.20;;;2.80;;
76795;SDS011;65745;50.278;18.192;2024-02-23T13:14:57;3.90;;;2.50;;
76795;SDS011;65745;50.278;18.192;2024-02-23T13:17:29;2.80;;;2.10;;
76795;SDS011;65745;50.278;18.192;2024-02-23T13:20:02;3.20;;;2.50;;
76795;SDS011;65745;50.278;18.192;2024-02-23T13:22:40;2.90;;;1.70;;
76795;SDS011;65745;50.278;18.192;2024-02-23T13:25:12;1.90;;;1.50;;
76795;SDS011;65745;50.278;18.192;2024-02-23T13:27:44;2.70;;;1.70;;
76795;SDS011;65745;50.278;18.192;2024-02-23T13:30:16;1.90;;;1.50;;
76795;SDS011;65745;50.278;18.192;2024-02-23T13:32:49;1.90;;;1.60;;
76795;SDS011;65745;50.278;18.192;2024-02-23T13:35:22;2.40;;;1.70;;
76795;SDS011;65745;50.278;18.192;2024-02-23T13:37:55;2.90;;;2.10;;
76795;SDS011;65745;50.278;18.192;2024-02-23T13:40:27;4.60;;;2.40;;
76795;SDS011;65745;50.278;18.192;2024-02-23T13:43:01;6.90;;;3.20;;
76795;SDS011;65745;50.278;18.192;2024-02-23T13:45:33;10.20;;;5.00;;
76795;SDS011;65745;50.278;18.192;2024-02-23T13:48:21;14.10;;;5.80;;
76795;SDS011;65745;50.278;18.192;2024-02-23T13:50:53;13.70;;;5.30;;
76795;SDS011;65745;50.278;18.192;2024-02-23T13:53:26;8.90;;;5.10;;
76795;SDS011;65745;50.278;18.192;2024-02-23T13:55:58;6.40;;;2.90;;
76795;SDS011;65745;50.278;18.192;2024-02-23T13:58:31;3.70;;;2.10;;
76795;SDS011;65745;50.278;18.192;2024-02-23T14:01:03;6.60;;;3.00;;
76795;SDS011;65745;50.278;18.192;2024-02-23T14:03:35;4.00;;;2.50;;
76795;SDS011;65745;50.278;18.192;2024-02-23T14:06:08;2.60;;;1.70;;
76795;SDS011;65745;50.278;18.192;2024-02-23T14:08:40;3.90;;;1.50;;
76795;SDS011;65745;50.278;18.192;2024-02-23T14:11:13;1.40;;;1.10;;
76795;SDS011;65745;50.278;18.192;2024-02-23T14:13:47;3.90;;;2.30;;
76795;SDS011;65745;50.278;18.192;2024-02-23T14:16:20;5.50;;;3.80;;
76795;SDS011;65745;50.278;18.192;2024-02-23T14:18:53;7.80;;;4.40;;
76795;SDS011;65745;50.278;18.192;2024-02-23T14:21:26;9.20;;;5.90;;
76795;SDS011;65745;50.278;18.192;2024-02-23T14:23:58;9.90;;;5.50;;
76795;SDS011;65745;50.278;18.192;2024-02-23T14:26:30;17.60;;;10.20;;
76795;SDS011;65745;50.278;18.192;2024-02-23T14:29:03;19.50;;;9.60;;
76795;SDS011;65745;50.278;18.192;2024-02-23T14:31:35;13.10;;;8.20;;
76795;SDS011;65745;50.278;18.192;2024-02-23T14:34:07;20.60;;;15.70;;
76795;SDS011;65745;50.278;18.192;2024-02-23T14:36:40;24.00;;;19.00;;
76795;SDS011;65745;50.278;18.192;2024-02-23T14:39:13;27.80;;;20.60;;
76795;SDS011;65745;50.278;18.192;2024-02-23T14:41:45;10.00;;;7.20;;
76795;SDS011;65745;50.278;18.192;2024-02-23T14:44:17;10.90;;;7.00;;
76795;SDS011;65745;50.278;18.192;2024-02-23T14:46:50;25.10;;;17.80;;
76795;SDS011;65745;50.278;18.192;2024-02-23T14:49:23;68.30;;;61.40;;
76795;SDS011;65745;50.278;18.192;2024-02-23T14:51:55;42.60;;;37.60;;
76795;SDS011;65745;50.278;18.192;2024-02-23T14:54:27;29.70;;;21.50;;
76795;SDS011;65745;50.278;18.192;2024-02-23T14:56:59;22.70;;;16.40;;
76795;SDS011;65745;50.278;18.192;2024-02-23T14:59:33;14.70;;;11.40;;
76795;SDS011;65745;50.278;18.192;2024-02-23T15:02:10;25.90;;;15.20;;
76795;SDS011;65745;50.278;18.192;2024-02-23T15:04:49;21.80;;;13.20;;
76795;SDS011;65745;50.278;18.192;2024-02-23T15:07:21;27.80;;;17.90;;
76795;SDS011;65745;50.278;18.192;2024-02-23T15:09:53;19.70;;;12.80;;
76795;SDS011;65745;50.278;18.192;2024-02-23T15:12:26;17.00;;;10.20;;